createdAt,value
2022-11-08T00:00:23.855Z,1.70
2022-11-08T00:01:23.900Z,3.10
2022-11-08T00:02:23.889Z,0.60
2022-11-08T00:03:23.881Z,0.50
2022-11-08T00:04:23.782Z,0.80
2022-11-08T00:05:23.792Z,1.80
2022-11-08T00:06:23.844Z,2.20
2022-11-08T00:07:23.779Z,1.70
2022-11-08T00:08:23.755Z,4.10
2022-11-08T00:09:23.732Z,2.70
2022-11-08T00:10:23.788Z,2.10
2022-11-08T00:11:23.734Z,1.40
2022-11-08T00:12:23.721Z,3.40
2022-11-08T00:13:23.695Z,2.50
2022-11-08T00:14:23.682Z,3.00
2022-11-08T00:15:23.666Z,2.80
2022-11-08T00:16:23.714Z,3.00
2022-11-08T00:17:23.657Z,3.20
2022-11-08T00:18:23.705Z,4.50
2022-11-08T00:19:23.705Z,2.90
2022-11-08T00:20:23.806Z,2.70
2022-11-08T00:21:23.730Z,2.00
2022-11-08T00:22:23.605Z,2.20
2022-11-08T00:23:23.611Z,3.50
2022-11-08T00:24:23.568Z,2.00
2022-11-08T00:25:23.617Z,2.10
2022-11-08T00:26:23.573Z,2.50
2022-11-08T00:27:23.553Z,1.10
2022-11-08T00:28:23.549Z,1.80
2022-11-08T00:29:23.593Z,2.60
2022-11-08T00:30:23.508Z,2.50
2022-11-08T00:31:23.561Z,3.60
2022-11-08T00:32:23.491Z,1.80
2022-11-08T00:33:23.518Z,2.20
2022-11-08T00:34:23.473Z,1.10
2022-11-08T00:35:23.546Z,2.30
2022-11-08T00:36:23.544Z,2.20
2022-11-08T00:37:23.487Z,1.40
2022-11-08T00:38:23.439Z,2.10
2022-11-08T00:39:23.430Z,2.60
2022-11-08T00:40:23.432Z,5.30
2022-11-08T00:41:23.480Z,5.00
2022-11-08T00:42:23.405Z,3.40
2022-11-08T00:43:23.394Z,2.20
2022-11-08T00:44:23.385Z,2.50
2022-11-08T00:45:23.357Z,2.50
2022-11-08T00:46:23.358Z,3.30
2022-11-08T00:47:23.356Z,1.70
2022-11-08T00:48:23.317Z,2.20
2022-11-08T00:49:23.303Z,2.20
2022-11-08T00:50:23.351Z,4.60
2022-11-08T00:51:23.374Z,2.50
2022-11-08T00:52:23.269Z,2.60
2022-11-08T00:53:23.322Z,1.30
2022-11-08T00:54:23.261Z,4.20
2022-11-08T00:55:23.281Z,1.70
2022-11-08T00:56:23.269Z,2.70
2022-11-08T00:57:35.947Z,1.10
2022-11-08T00:58:27.487Z,3.60
2022-11-08T00:59:23.318Z,2.30
2022-11-08T01:00:23.212Z,2.20
2022-11-08T01:01:23.306Z,2.80
2022-11-08T01:02:23.227Z,1.60
2022-11-08T01:03:23.270Z,1.30
2022-11-08T01:04:23.146Z,3.10
2022-11-08T01:05:23.139Z,1.80
2022-11-08T01:06:23.157Z,3.40
2022-11-08T01:07:23.131Z,0.70
2022-11-08T01:08:23.135Z,1.20
2022-11-08T01:09:23.109Z,2.60
2022-11-08T01:10:23.096Z,1.10
2022-11-08T01:11:23.136Z,2.30
2022-11-08T01:12:23.103Z,2.70
2022-11-08T01:13:23.072Z,2.10
2022-11-08T01:14:23.114Z,1.90
2022-11-08T01:15:23.088Z,1.70
2022-11-08T01:16:23.101Z,1.10
2022-11-08T01:17:23.009Z,1.50
2022-11-08T01:18:23.010Z,4.70
2022-11-08T01:19:23.507Z,3.50
2022-11-08T01:20:23.010Z,2.20
2022-11-08T01:21:23.051Z,2.20
2022-11-08T01:22:23.039Z,1.60
2022-11-08T01:23:23.059Z,1.20
2022-11-08T01:24:22.938Z,1.30
2022-11-08T01:25:22.929Z,1.90
2022-11-08T01:26:22.987Z,3.10
2022-11-08T01:27:22.913Z,1.50
2022-11-08T01:28:22.921Z,2.80
2022-11-08T01:29:22.907Z,2.80
2022-11-08T01:30:22.889Z,4.30
2022-11-08T01:31:22.883Z,3.80
2022-11-08T01:32:22.911Z,2.00
2022-11-08T01:33:22.849Z,2.00
2022-11-08T01:34:22.936Z,2.30
2022-11-08T01:35:22.870Z,2.30
2022-11-08T01:36:22.879Z,1.90
2022-11-08T01:37:22.875Z,1.50
2022-11-08T01:38:22.835Z,2.90
2022-11-08T01:39:22.851Z,1.90
2022-11-08T01:40:22.799Z,2.50
2022-11-08T01:41:22.793Z,2.20
2022-11-08T01:42:22.769Z,1.50
2022-11-08T01:43:22.815Z,2.50
2022-11-08T01:44:22.717Z,1.30
2022-11-08T01:45:22.705Z,1.70
2022-11-08T01:46:22.745Z,2.50
2022-11-08T01:47:22.682Z,3.20
2022-11-08T01:48:22.725Z,3.30
2022-11-08T01:49:22.687Z,1.90
2022-11-08T01:50:22.704Z,1.40
2022-11-08T01:51:22.678Z,2.00
2022-11-08T01:52:22.629Z,2.30
2022-11-08T01:53:22.689Z,1.50
2022-11-08T01:54:22.647Z,2.60
2022-11-08T01:55:22.672Z,1.90
2022-11-08T01:56:22.609Z,2.90
2022-11-08T01:57:22.611Z,4.00
2022-11-08T01:58:22.662Z,1.40
2022-11-08T01:59:22.608Z,2.70
2022-11-08T02:00:22.585Z,3.00
2022-11-08T02:01:22.659Z,2.70
2022-11-08T02:02:22.591Z,1.80
2022-11-08T02:03:22.605Z,2.50
2022-11-08T02:04:22.591Z,2.00
2022-11-08T02:05:22.523Z,1.60
2022-11-08T02:06:22.492Z,1.70
2022-11-08T02:07:22.491Z,2.80
2022-11-08T02:08:22.506Z,5.60
2022-11-08T02:09:22.470Z,3.60
2022-11-08T02:10:22.812Z,2.10
2022-11-08T02:11:22.966Z,4.00
2022-11-08T02:12:22.708Z,8.30
2022-11-08T02:13:22.406Z,5.60
2022-11-08T02:14:22.403Z,5.00
2022-11-08T02:15:22.406Z,5.20
2022-11-08T02:16:22.412Z,3.40
2022-11-08T02:17:22.406Z,3.00
2022-11-08T02:18:22.370Z,7.10
2022-11-08T02:19:22.358Z,6.70
2022-11-08T02:20:22.336Z,2.80
2022-11-08T02:21:22.404Z,3.70
2022-11-08T02:22:22.822Z,4.80
2022-11-08T02:23:22.326Z,4.90
2022-11-08T02:24:22.286Z,2.70
2022-11-08T02:25:22.282Z,3.50
2022-11-08T02:26:22.270Z,2.50
2022-11-08T02:27:22.318Z,2.90
2022-11-08T02:28:22.252Z,5.70
2022-11-08T02:29:22.432Z,1.40
2022-11-08T02:30:22.245Z,1.80
2022-11-08T02:31:22.251Z,2.90
2022-11-08T02:32:22.217Z,4.60
2022-11-08T02:33:22.247Z,6.20
2022-11-08T02:34:22.238Z,4.10
2022-11-08T02:35:22.220Z,3.90
2022-11-08T02:36:22.234Z,4.40
2022-11-08T02:37:22.167Z,4.30
2022-11-08T02:38:22.194Z,2.60
2022-11-08T02:39:22.175Z,7.20
2022-11-08T02:40:22.128Z,4.80
2022-11-08T02:41:22.170Z,4.50
2022-11-08T02:42:22.148Z,4.60
2022-11-08T02:43:22.095Z,3.30
2022-11-08T02:44:22.084Z,4.20
2022-11-08T02:45:22.278Z,3.80
2022-11-08T02:46:22.109Z,2.40
2022-11-08T02:47:22.090Z,5.10
2022-11-08T02:48:22.085Z,2.20
2022-11-08T02:49:22.073Z,5.10
2022-11-08T02:50:22.045Z,4.50
2022-11-08T02:51:22.042Z,3.30
2022-11-08T02:52:22.053Z,3.00
2022-11-08T02:53:22.017Z,3.90
2022-11-08T02:54:22.075Z,4.30
2022-11-08T02:55:22.024Z,3.00
2022-11-08T02:56:22.015Z,3.00
2022-11-08T02:57:22.008Z,5.60
2022-11-08T02:58:21.994Z,2.50
2022-11-08T02:59:21.960Z,3.50
2022-11-08T03:00:21.942Z,2.40
2022-11-08T03:01:21.988Z,3.20
2022-11-08T03:02:22.119Z,4.90
2022-11-08T03:03:21.902Z,2.90
2022-11-08T03:04:21.932Z,3.10
2022-11-08T03:05:21.931Z,2.10
2022-11-08T03:06:21.849Z,2.00
2022-11-08T03:07:24.864Z,6.70
2022-11-08T03:08:22.098Z,3.50
2022-11-08T03:09:21.853Z,1.80
2022-11-08T03:10:21.823Z,4.40
2022-11-08T03:11:21.813Z,4.90
2022-11-08T03:12:21.800Z,3.30
2022-11-08T03:13:21.813Z,2.10
2022-11-08T03:14:21.813Z,3.40
2022-11-08T03:15:21.838Z,3.50
2022-11-08T03:16:21.882Z,2.80
2022-11-08T03:17:21.735Z,1.70
2022-11-08T03:18:21.745Z,2.90
2022-11-08T03:19:21.728Z,1.40
2022-11-08T03:20:21.699Z,2.30
2022-11-08T03:21:21.756Z,1.90
2022-11-08T03:22:21.687Z,4.60
2022-11-08T03:23:21.778Z,2.30
2022-11-08T03:24:21.668Z,2.00
2022-11-08T03:25:21.696Z,1.40
2022-11-08T03:26:21.714Z,2.20
2022-11-08T03:27:21.697Z,2.70
2022-11-08T03:28:23.035Z,2.30
2022-11-08T03:29:21.687Z,1.90
2022-11-08T03:30:21.744Z,2.20
2022-11-08T03:31:21.596Z,1.70
2022-11-08T03:32:21.572Z,1.90
2022-11-08T03:33:21.575Z,1.80
2022-11-08T03:34:21.593Z,1.40
2022-11-08T03:35:21.609Z,3.10
2022-11-08T03:36:21.617Z,1.80
2022-11-08T03:37:21.532Z,2.10
2022-11-08T03:38:21.547Z,3.10
2022-11-08T03:39:21.583Z,2.80
2022-11-08T03:40:21.549Z,2.30
2022-11-08T03:41:21.494Z,3.80
2022-11-08T03:42:21.497Z,1.70
2022-11-08T03:43:21.495Z,2.90
2022-11-08T03:44:21.453Z,2.30
2022-11-08T03:45:21.445Z,2.80
2022-11-08T03:46:21.456Z,2.10
2022-11-08T03:47:21.441Z,4.30
2022-11-08T03:48:21.678Z,2.40
2022-11-08T03:49:21.415Z,2.70
2022-11-08T03:50:21.409Z,2.50
2022-11-08T03:51:21.405Z,2.10
2022-11-08T03:52:21.373Z,1.80
2022-11-08T03:53:21.479Z,2.60
2022-11-08T03:54:21.399Z,2.40
2022-11-08T03:55:21.339Z,2.80
2022-11-08T03:56:21.422Z,2.50
2022-11-08T03:57:21.314Z,3.50
2022-11-08T03:58:21.572Z,2.80
2022-11-08T03:59:21.320Z,5.20
2022-11-08T04:00:21.298Z,4.30
2022-11-08T04:01:21.557Z,2.20
2022-11-08T04:02:21.350Z,1.70
2022-11-08T04:03:21.296Z,8.70
2022-11-08T04:04:21.259Z,2.00
2022-11-08T04:05:21.263Z,1.90
2022-11-08T04:06:21.435Z,1.70
2022-11-08T04:07:21.276Z,2.20
2022-11-08T04:08:21.397Z,1.60
2022-11-08T04:09:21.790Z,2.40
2022-11-08T04:10:21.205Z,3.70
2022-11-08T04:11:21.250Z,1.10
2022-11-08T04:12:21.182Z,2.60
2022-11-08T04:13:21.179Z,2.40
2022-11-08T04:14:21.158Z,1.70
2022-11-08T04:15:21.146Z,3.60
2022-11-08T04:16:21.212Z,1.70
2022-11-08T04:17:21.215Z,1.60
2022-11-08T04:18:21.487Z,2.10
2022-11-08T04:19:21.193Z,3.00
2022-11-08T04:20:21.146Z,1.10
2022-11-08T04:21:21.141Z,1.40
2022-11-08T04:22:21.067Z,1.60
2022-11-08T04:23:21.070Z,2.00
2022-11-08T04:24:21.049Z,1.40
2022-11-08T04:25:21.025Z,1.40
2022-11-08T04:26:21.039Z,3.10
2022-11-08T04:27:21.023Z,3.20
2022-11-08T04:28:21.154Z,1.30
2022-11-08T04:29:20.971Z,3.60
2022-11-08T04:30:20.972Z,2.50
2022-11-08T04:31:21.028Z,4.70
2022-11-08T04:32:20.994Z,4.50
2022-11-08T04:33:20.937Z,2.70
2022-11-08T04:34:21.066Z,2.30
2022-11-08T04:35:20.960Z,1.10
2022-11-08T04:36:20.951Z,2.00
2022-11-08T04:37:20.890Z,2.30
2022-11-08T04:38:21.216Z,2.20
2022-11-08T04:39:20.959Z,1.90
2022-11-08T04:40:20.884Z,3.30
2022-11-08T04:41:20.904Z,2.30
2022-11-08T04:42:20.861Z,2.70
2022-11-08T04:43:20.825Z,1.70
2022-11-08T04:44:20.813Z,1.40
2022-11-08T04:45:20.823Z,2.30
2022-11-08T04:46:20.862Z,1.70
2022-11-08T04:47:20.819Z,1.80
2022-11-08T04:48:21.040Z,1.70
2022-11-08T04:49:20.827Z,1.20
2022-11-08T04:50:20.762Z,1.30
2022-11-08T04:51:20.764Z,2.50
2022-11-08T04:52:20.773Z,1.10
2022-11-08T04:53:20.733Z,1.70
2022-11-08T04:54:20.707Z,1.50
2022-11-08T04:55:20.737Z,2.60
2022-11-08T04:56:20.732Z,1.70
2022-11-08T04:57:20.801Z,2.10
2022-11-08T04:58:20.895Z,4.60
2022-11-08T04:59:20.661Z,1.60
2022-11-08T05:00:20.648Z,2.90
2022-11-08T05:01:20.832Z,2.60
2022-11-08T05:02:20.782Z,1.50
2022-11-08T05:03:20.614Z,2.20
2022-11-08T05:04:20.627Z,1.50
2022-11-08T05:05:20.674Z,2.80
2022-11-08T05:06:20.633Z,1.20
2022-11-08T05:07:20.604Z,2.70
2022-11-08T05:08:20.911Z,2.10
2022-11-08T05:09:20.637Z,2.20
2022-11-08T05:10:20.553Z,1.70
2022-11-08T05:11:20.581Z,1.80
2022-11-08T05:12:20.608Z,1.20
2022-11-08T05:13:20.538Z,1.40
2022-11-08T05:14:20.505Z,5.60
2022-11-08T05:15:20.542Z,1.50
2022-11-08T05:16:20.499Z,2.10
2022-11-08T05:17:20.501Z,2.30
2022-11-08T05:18:20.720Z,4.20
2022-11-08T05:19:20.458Z,2.60
2022-11-08T05:20:20.462Z,2.90
2022-11-08T05:21:20.452Z,2.70
2022-11-08T05:22:20.421Z,2.40
2022-11-08T05:23:20.446Z,4.90
2022-11-08T05:24:20.415Z,2.20
2022-11-08T05:25:20.445Z,2.00
2022-11-08T05:26:20.470Z,2.20
2022-11-08T05:27:20.401Z,1.30
2022-11-08T05:28:20.646Z,2.00
2022-11-08T05:29:20.398Z,1.60
2022-11-08T05:30:20.344Z,4.10
2022-11-08T05:31:20.398Z,2.70
2022-11-08T05:32:20.349Z,1.60
2022-11-08T05:33:20.374Z,2.30
2022-11-08T05:34:20.298Z,1.80
2022-11-08T05:35:20.300Z,2.50
2022-11-08T05:36:20.330Z,4.60
2022-11-08T05:37:20.420Z,4.70
2022-11-08T05:38:20.711Z,1.40
2022-11-08T05:39:20.241Z,2.50
2022-11-08T05:40:20.225Z,1.60
2022-11-08T05:41:20.308Z,2.60
2022-11-08T05:42:20.254Z,1.50
2022-11-08T05:43:20.587Z,2.60
2022-11-08T05:44:20.191Z,4.00
2022-11-08T05:45:20.205Z,2.20
2022-11-08T05:46:20.231Z,2.30
2022-11-08T05:47:20.201Z,2.50
2022-11-08T05:48:20.552Z,2.10
2022-11-08T05:49:20.153Z,2.10
2022-11-08T05:50:20.140Z,2.40
2022-11-08T05:51:20.183Z,3.70
2022-11-08T05:52:20.101Z,2.20
2022-11-08T05:53:20.368Z,1.60
2022-11-08T05:54:20.089Z,3.50
2022-11-08T05:55:20.116Z,2.00
2022-11-08T05:56:20.113Z,2.00
2022-11-08T05:57:22.174Z,2.90
2022-11-08T05:58:20.096Z,2.00
2022-11-08T05:59:20.055Z,2.60
2022-11-08T06:00:20.022Z,3.80
2022-11-08T06:01:20.112Z,1.30
2022-11-08T06:02:20.114Z,2.00
2022-11-08T06:03:23.674Z,1.30
2022-11-08T06:04:19.986Z,1.90
2022-11-08T06:05:20.023Z,2.80
2022-11-08T06:06:20.037Z,3.10
2022-11-08T06:07:19.995Z,2.00
2022-11-08T06:08:19.968Z,5.20
2022-11-08T06:09:19.962Z,3.50
2022-11-08T06:10:19.933Z,2.10
2022-11-08T06:11:19.936Z,3.10
2022-11-08T06:12:20.003Z,3.30
2022-11-08T06:13:19.935Z,1.80
2022-11-08T06:14:20.020Z,2.80
2022-11-08T06:15:19.941Z,8.70
2022-11-08T06:16:19.929Z,3.90
2022-11-08T06:17:19.851Z,3.10
2022-11-08T06:18:19.889Z,3.30
2022-11-08T06:19:19.818Z,5.30
2022-11-08T06:20:19.927Z,5.00
2022-11-08T06:21:19.855Z,5.30
2022-11-08T06:22:19.803Z,6.20
2022-11-08T06:23:20.186Z,7.40
2022-11-08T06:24:19.788Z,10.20
2022-11-08T06:25:19.788Z,7.40
2022-11-08T06:26:19.787Z,8.20
2022-11-08T06:27:19.752Z,6.90
2022-11-08T06:28:19.803Z,6.60
2022-11-08T06:29:19.736Z,8.00
2022-11-08T06:30:19.709Z,7.10
2022-11-08T06:31:19.781Z,5.70
2022-11-08T06:32:19.728Z,8.60
2022-11-08T06:33:20.188Z,4.50
2022-11-08T06:34:19.676Z,7.10
2022-11-08T06:35:19.696Z,7.00
2022-11-08T06:36:19.698Z,3.60
2022-11-08T06:37:19.649Z,4.40
2022-11-08T06:38:19.619Z,4.00
2022-11-08T06:39:19.644Z,4.00
2022-11-08T06:40:19.654Z,4.50
2022-11-08T06:41:19.686Z,4.60
2022-11-08T06:42:19.574Z,3.60
2022-11-08T06:43:20.405Z,6.90
2022-11-08T06:44:19.629Z,2.80
2022-11-08T06:45:19.581Z,3.60
2022-11-08T06:46:19.603Z,3.80
2022-11-08T06:47:19.558Z,2.70
2022-11-08T06:48:19.561Z,4.50
2022-11-08T06:49:19.588Z,3.30
2022-11-08T06:50:19.495Z,5.40
2022-11-08T06:51:19.530Z,4.40
2022-11-08T06:52:19.467Z,4.80
2022-11-08T06:53:19.920Z,6.20
2022-11-08T06:54:22.119Z,4.80
2022-11-08T06:55:20.436Z,6.10
2022-11-08T06:56:19.473Z,4.00
2022-11-08T06:57:19.460Z,6.20
2022-11-08T06:58:19.421Z,4.70
2022-11-08T06:59:19.411Z,3.90
2022-11-08T07:00:19.492Z,6.10
2022-11-08T07:01:19.430Z,4.50
2022-11-08T07:02:19.543Z,5.00
2022-11-08T07:03:19.707Z,4.30
2022-11-08T07:04:19.577Z,6.40
2022-11-08T07:05:19.396Z,8.10
2022-11-08T07:06:19.393Z,7.20
2022-11-08T07:07:19.353Z,5.10
2022-11-08T07:08:23.698Z,5.40
2022-11-08T07:09:19.557Z,6.20
2022-11-08T07:10:19.289Z,8.30
2022-11-08T07:11:19.346Z,4.70
2022-11-08T07:12:19.254Z,4.60
2022-11-08T07:13:19.860Z,4.90
2022-11-08T07:14:19.252Z,5.80
2022-11-08T07:15:19.299Z,5.80
2022-11-08T07:16:19.279Z,4.60
2022-11-08T07:17:19.234Z,4.60
2022-11-08T07:18:19.319Z,6.30
2022-11-08T07:19:19.220Z,6.90
2022-11-08T07:20:19.222Z,3.80
2022-11-08T07:21:19.246Z,6.20
2022-11-08T07:22:19.184Z,6.10
2022-11-08T07:23:19.690Z,5.20
2022-11-08T07:24:19.173Z,5.40
2022-11-08T07:25:19.178Z,5.10
2022-11-08T07:26:19.154Z,5.70
2022-11-08T07:27:19.137Z,5.70
2022-11-08T07:28:19.085Z,4.90
2022-11-08T07:29:19.068Z,4.80
2022-11-08T07:30:19.064Z,6.70
2022-11-08T07:31:19.207Z,8.30
2022-11-08T07:32:19.119Z,4.30
2022-11-08T07:33:19.387Z,8.50
2022-11-08T07:34:19.099Z,6.50
2022-11-08T07:35:19.084Z,4.70
2022-11-08T07:36:19.046Z,6.10
2022-11-08T07:37:18.992Z,6.50
2022-11-08T07:38:19.004Z,3.50
2022-11-08T07:39:19.085Z,2.10
2022-11-08T07:40:18.995Z,4.00
2022-11-08T07:41:19.008Z,5.10
2022-11-08T07:42:18.963Z,2.10
2022-11-08T07:43:19.024Z,2.10
2022-11-08T07:44:18.942Z,3.30
2022-11-08T07:45:18.922Z,3.80
2022-11-08T07:46:18.929Z,8.70
2022-11-08T07:47:18.961Z,13.20
2022-11-08T07:48:18.936Z,16.30
2022-11-08T07:49:18.895Z,9.90
2022-11-08T07:50:18.847Z,5.00
2022-11-08T07:51:18.872Z,3.20
2022-11-08T07:52:18.915Z,7.40
2022-11-08T07:53:19.302Z,10.40
2022-11-08T07:54:18.814Z,5.60
2022-11-08T07:55:18.824Z,7.50
2022-11-08T07:56:18.825Z,4.50
2022-11-08T07:57:18.841Z,2.60
2022-11-08T07:58:18.762Z,3.40
2022-11-08T07:59:18.764Z,4.30
2022-11-08T08:00:18.800Z,2.20
2022-11-08T08:01:18.760Z,1.80
2022-11-08T08:02:18.911Z,1.50
2022-11-08T08:03:19.324Z,1.00
2022-11-08T08:04:18.751Z,1.70
2022-11-08T08:05:18.706Z,2.10
2022-11-08T08:06:18.779Z,2.90
2022-11-08T08:07:18.839Z,4.80
2022-11-08T08:08:18.893Z,2.70
2022-11-08T08:09:18.684Z,2.40
2022-11-08T08:10:18.657Z,2.10
2022-11-08T08:11:18.748Z,2.00
2022-11-08T08:12:18.630Z,2.50
2022-11-08T08:13:19.012Z,2.90
2022-11-08T08:14:18.739Z,2.20
2022-11-08T08:15:18.655Z,1.90
2022-11-08T08:16:18.609Z,2.50
2022-11-08T08:17:18.634Z,2.80
2022-11-08T08:18:18.635Z,2.80
2022-11-08T08:19:18.622Z,5.50
2022-11-08T08:20:18.551Z,3.00
2022-11-08T08:21:18.542Z,5.20
2022-11-08T08:22:18.511Z,2.80
2022-11-08T08:23:18.929Z,3.10
2022-11-08T08:24:18.547Z,2.30
2022-11-08T08:25:18.525Z,4.50
2022-11-08T08:26:18.494Z,2.70
2022-11-08T08:27:18.559Z,3.10
2022-11-08T08:28:18.523Z,2.60
2022-11-08T08:29:18.437Z,4.50
2022-11-08T08:30:18.430Z,3.50
2022-11-08T08:31:18.437Z,4.50
2022-11-08T08:32:18.481Z,5.80
2022-11-08T08:33:33.734Z,4.10
2022-11-08T08:34:19.376Z,3.30
2022-11-08T08:35:18.433Z,4.30
2022-11-08T08:36:18.415Z,5.70
2022-11-08T08:37:18.369Z,6.10
2022-11-08T08:38:18.418Z,6.40
2022-11-08T08:39:18.433Z,5.90
2022-11-08T08:40:18.345Z,5.20
2022-11-08T08:41:18.349Z,5.70
2022-11-08T08:42:18.337Z,5.10
2022-11-08T08:43:18.669Z,4.80
2022-11-08T08:44:18.314Z,7.30
2022-11-08T08:45:18.314Z,5.60
2022-11-08T08:46:18.304Z,5.60
2022-11-08T08:47:18.307Z,4.10
2022-11-08T08:48:18.223Z,5.00
2022-11-08T08:49:18.271Z,8.70
2022-11-08T08:50:18.276Z,7.10
2022-11-08T08:51:18.230Z,7.30
2022-11-08T08:52:18.250Z,6.90
2022-11-08T08:53:18.605Z,7.20
2022-11-08T08:54:18.192Z,3.70
2022-11-08T08:55:18.211Z,7.60
2022-11-08T08:56:18.159Z,6.20
2022-11-08T08:57:18.245Z,6.30
2022-11-08T08:58:18.160Z,3.70
2022-11-08T09:02:19.193Z,3.90
2022-11-08T09:03:18.401Z,8.30
2022-11-08T09:04:18.113Z,6.10
2022-11-08T09:05:18.076Z,10.30
2022-11-08T09:06:18.073Z,7.30
2022-11-08T09:07:18.148Z,7.30
2022-11-08T09:08:18.050Z,7.60
2022-11-08T09:09:18.024Z,6.90
2022-11-08T09:10:17.992Z,6.40
2022-11-08T09:11:18.010Z,5.30
2022-11-08T09:12:17.996Z,8.20
2022-11-08T09:13:18.336Z,7.20
2022-11-08T09:14:18.100Z,7.00
2022-11-08T09:15:18.098Z,5.20
2022-11-08T09:16:17.932Z,5.70
2022-11-08T09:17:17.953Z,5.60
2022-11-08T09:18:18.148Z,8.80
2022-11-08T09:19:17.929Z,7.30
2022-11-08T09:20:17.962Z,4.90
2022-11-08T09:21:17.925Z,6.90
2022-11-08T09:22:17.880Z,5.00
2022-11-08T09:23:18.443Z,7.40
2022-11-08T09:24:17.906Z,5.50
2022-11-08T09:25:17.838Z,6.60
2022-11-08T09:26:17.962Z,5.30
2022-11-08T09:27:17.844Z,5.40
2022-11-08T09:28:17.797Z,3.90
2022-11-08T09:29:17.801Z,6.40
2022-11-08T09:30:17.823Z,4.60
2022-11-08T09:31:17.846Z,4.00
2022-11-08T09:32:24.763Z,3.40
2022-11-08T09:33:19.094Z,5.60
2022-11-08T09:34:20.723Z,5.00
2022-11-08T09:35:17.750Z,4.30
2022-11-08T09:36:17.720Z,5.20
2022-11-08T09:37:17.750Z,3.10
2022-11-08T09:38:18.147Z,5.60
2022-11-08T09:39:17.720Z,5.10
2022-11-08T09:40:17.714Z,3.90
2022-11-08T09:41:17.728Z,5.30
2022-11-08T09:42:17.662Z,6.10
2022-11-08T09:43:17.942Z,8.00
2022-11-08T09:44:17.638Z,9.80
2022-11-08T09:45:17.764Z,8.10
2022-11-08T09:46:17.615Z,8.90
2022-11-08T09:47:17.637Z,4.40
2022-11-08T09:48:17.610Z,4.30
2022-11-08T09:49:17.573Z,5.40
2022-11-08T09:50:17.562Z,5.40
2022-11-08T09:51:17.624Z,5.40
2022-11-08T09:52:17.552Z,5.80
2022-11-08T09:53:17.986Z,6.40
2022-11-08T09:54:19.516Z,5.60
2022-11-08T09:55:17.547Z,10.30
2022-11-08T09:56:17.548Z,12.90
2022-11-08T09:57:17.509Z,13.20
2022-11-08T09:58:17.519Z,46.40
2022-11-08T09:59:17.512Z,49.70
2022-11-08T10:00:17.739Z,44.30
2022-11-08T10:01:17.578Z,23.70
2022-11-08T10:02:17.562Z,15.00
2022-11-08T10:03:17.695Z,13.80
2022-11-08T10:04:17.422Z,12.40
2022-11-08T10:05:17.429Z,11.80
2022-11-08T10:06:17.436Z,17.40
2022-11-08T10:07:17.600Z,11.60
2022-11-08T10:08:17.386Z,11.50
2022-11-08T10:09:17.422Z,17.40
2022-11-08T10:10:17.359Z,14.40
2022-11-08T10:11:17.450Z,16.50
2022-11-08T10:12:17.346Z,15.80
2022-11-08T10:13:17.680Z,18.70
2022-11-08T10:14:17.314Z,13.30
2022-11-08T10:15:17.328Z,15.10
2022-11-08T10:16:17.368Z,14.50
2022-11-08T10:17:17.296Z,17.70
2022-11-08T10:18:17.256Z,17.70
2022-11-08T10:19:17.258Z,13.10
2022-11-08T10:20:17.230Z,17.20
2022-11-08T10:21:17.240Z,17.10
2022-11-08T10:22:17.213Z,13.50
2022-11-08T10:23:17.694Z,11.70
2022-11-08T10:24:17.189Z,11.00
2022-11-08T10:25:17.257Z,11.80
2022-11-08T10:26:18.051Z,9.90
2022-11-08T10:27:17.168Z,8.00
2022-11-08T10:28:17.172Z,8.50
2022-11-08T10:29:17.164Z,7.20
2022-11-08T10:30:17.149Z,5.00
2022-11-08T10:31:17.195Z,5.90
2022-11-08T10:32:17.121Z,6.50
2022-11-08T10:33:17.586Z,4.50
2022-11-08T10:34:17.088Z,7.50
2022-11-08T10:35:17.079Z,3.00
2022-11-08T10:36:17.095Z,3.40
2022-11-08T10:37:17.055Z,2.70
2022-11-08T10:38:17.078Z,3.20
2022-11-08T10:39:17.118Z,6.10
2022-11-08T10:40:17.079Z,2.50
2022-11-08T10:41:17.099Z,3.00
2022-11-08T10:42:16.996Z,2.00
2022-11-08T10:43:16.990Z,5.70
2022-11-08T10:44:17.023Z,1.70
2022-11-08T10:45:17.100Z,3.00
2022-11-08T10:46:17.003Z,2.20
2022-11-08T10:47:16.974Z,1.50
2022-11-08T10:48:17.420Z,5.90
2022-11-08T10:49:16.972Z,2.70
2022-11-08T10:50:16.957Z,2.30
2022-11-08T10:51:16.921Z,4.10
2022-11-08T10:52:16.920Z,2.50
2022-11-08T10:53:17.376Z,2.00
2022-11-08T10:54:16.876Z,2.00
2022-11-08T10:55:16.900Z,2.00
2022-11-08T10:56:16.873Z,2.50
2022-11-08T10:57:16.976Z,5.60
2022-11-08T10:58:17.138Z,2.50
2022-11-08T10:59:16.830Z,3.60
2022-11-08T11:00:16.857Z,1.80
2022-11-08T11:01:16.926Z,1.60
2022-11-08T11:02:16.831Z,2.30
2022-11-08T11:03:16.848Z,2.50
2022-11-08T11:04:16.822Z,3.80
2022-11-08T11:05:16.800Z,5.30
2022-11-08T11:06:16.823Z,1.80
2022-11-08T11:07:16.789Z,2.60
2022-11-08T11:08:17.118Z,5.90
2022-11-08T11:09:16.787Z,1.80
2022-11-08T11:10:16.773Z,5.20
2022-11-08T11:11:16.760Z,2.40
2022-11-08T11:12:16.727Z,4.10
2022-11-08T11:13:16.783Z,2.70
2022-11-08T11:14:21.842Z,3.70
2022-11-08T11:15:17.638Z,4.70
2022-11-08T11:16:16.773Z,3.20
2022-11-08T11:17:16.682Z,2.50
2022-11-08T11:18:16.993Z,5.10
2022-11-08T11:19:16.655Z,2.40
2022-11-08T11:20:16.643Z,3.00
2022-11-08T11:21:16.647Z,2.80
2022-11-08T11:22:16.625Z,3.70
2022-11-08T11:23:16.565Z,3.10
2022-11-08T11:24:19.239Z,5.10
2022-11-08T11:25:16.550Z,4.80
2022-11-08T11:26:16.653Z,4.10
2022-11-08T11:27:16.512Z,3.10
2022-11-08T11:28:16.937Z,3.90
2022-11-08T11:29:16.518Z,5.30
2022-11-08T11:30:16.558Z,2.50
2022-11-08T11:31:16.573Z,5.20
2022-11-08T11:32:16.497Z,3.10
2022-11-08T11:33:16.517Z,3.60
2022-11-08T11:34:16.441Z,3.50
2022-11-08T11:35:16.500Z,2.90
2022-11-08T11:36:16.413Z,3.30
2022-11-08T11:37:16.436Z,3.40
2022-11-08T11:38:16.757Z,2.80
2022-11-08T11:39:16.537Z,1.60
2022-11-08T11:40:16.480Z,2.60
2022-11-08T11:41:16.436Z,2.80
2022-11-08T11:42:43.715Z,2.20
2022-11-08T11:43:17.338Z,5.70
2022-11-08T11:44:16.330Z,1.60
2022-11-08T11:45:16.388Z,3.00
2022-11-08T11:46:16.320Z,2.30
2022-11-08T11:47:16.336Z,2.60
2022-11-08T11:48:16.688Z,2.10
2022-11-08T11:49:16.332Z,3.30
2022-11-08T11:50:16.302Z,2.80
2022-11-08T11:51:16.319Z,1.70
2022-11-08T11:52:16.248Z,1.30
2022-11-08T11:53:16.234Z,1.80
2022-11-08T11:54:16.224Z,2.10
2022-11-08T11:55:16.254Z,1.70
2022-11-08T11:56:16.193Z,2.00
2022-11-08T11:57:16.272Z,4.40
2022-11-08T11:58:16.459Z,4.30
2022-11-08T11:59:16.246Z,2.20
2022-11-08T12:00:16.222Z,2.20
2022-11-08T12:01:16.163Z,6.60
2022-11-08T12:02:16.229Z,7.40
2022-11-08T12:03:16.479Z,7.40
2022-11-08T12:04:16.172Z,8.70
2022-11-08T12:05:16.162Z,4.90
2022-11-08T12:06:16.191Z,3.30
2022-11-08T12:07:16.343Z,2.10
2022-11-08T12:08:16.460Z,2.20
2022-11-08T12:09:16.057Z,3.10
2022-11-08T12:10:16.098Z,2.40
2022-11-08T12:11:16.098Z,3.50
2022-11-08T12:12:16.063Z,3.80
2022-11-08T12:13:16.053Z,2.70
2022-11-08T12:14:16.046Z,2.70
2022-11-08T12:15:16.024Z,3.80
2022-11-08T12:16:16.022Z,2.10
2022-11-08T12:17:16.006Z,2.00
2022-11-08T12:18:36.566Z,1.80
2022-11-08T12:19:16.982Z,1.50
2022-11-08T12:20:16.084Z,2.10
2022-11-08T12:21:15.953Z,1.50
2022-11-08T12:22:15.972Z,0.90
2022-11-08T12:23:15.958Z,1.20
2022-11-08T12:24:16.001Z,1.50
2022-11-08T12:25:15.971Z,1.80
2022-11-08T12:26:15.898Z,1.40
2022-11-08T12:27:15.891Z,1.10
2022-11-08T12:28:16.167Z,2.20
2022-11-08T12:29:15.849Z,4.00
2022-11-08T12:30:15.881Z,4.10
2022-11-08T12:31:15.812Z,4.90
2022-11-08T12:32:15.860Z,4.60
2022-11-08T12:33:15.982Z,3.60
2022-11-08T12:34:15.824Z,3.50
2022-11-08T12:35:15.842Z,4.20
2022-11-08T12:36:15.771Z,5.60
2022-11-08T12:37:15.769Z,6.50
2022-11-08T12:38:16.191Z,3.30
2022-11-08T12:39:20.570Z,6.30
2022-11-08T12:40:16.824Z,1.80
2022-11-08T12:41:15.726Z,2.90
2022-11-08T12:42:15.812Z,1.30
2022-11-08T12:43:15.711Z,1.30
2022-11-08T12:44:15.714Z,1.30
2022-11-08T12:45:15.697Z,2.10
2022-11-08T12:46:15.654Z,1.30
2022-11-08T12:47:15.651Z,1.70
2022-11-08T12:48:16.030Z,2.30
2022-11-08T12:49:15.677Z,1.00
2022-11-08T12:50:15.735Z,2.20
2022-11-08T12:51:15.621Z,2.40
2022-11-08T12:52:15.592Z,1.20
2022-11-08T12:53:15.717Z,1.50
2022-11-08T12:54:15.573Z,1.40
2022-11-08T12:55:15.642Z,1.30
2022-11-08T12:56:15.699Z,2.00
2022-11-08T12:57:15.562Z,2.70
2022-11-08T12:58:15.851Z,1.00
2022-11-08T12:59:15.615Z,1.80
2022-11-08T13:00:15.539Z,4.70
2022-11-08T13:01:15.583Z,1.30
2022-11-08T13:02:15.520Z,1.90
2022-11-08T13:03:15.473Z,2.70
2022-11-08T13:04:15.510Z,0.90
2022-11-08T13:05:15.461Z,0.90
2022-11-08T13:06:15.506Z,1.40
2022-11-08T13:07:15.592Z,1.10
2022-11-08T13:08:15.653Z,1.10
2022-11-08T13:09:15.444Z,0.80
2022-11-08T13:10:15.445Z,2.10
2022-11-08T13:11:15.397Z,2.90
2022-11-08T13:12:15.377Z,0.70
2022-11-08T13:13:15.468Z,1.20
2022-11-08T13:14:15.495Z,2.20
2022-11-08T13:15:15.344Z,1.60
2022-11-08T13:16:15.374Z,0.70
2022-11-08T13:17:15.353Z,1.30
2022-11-08T13:18:15.491Z,1.40
2022-11-08T13:19:15.370Z,7.50
2022-11-08T13:20:15.343Z,1.10